Weather History for KBIE - January, 2007

Change the Weather History Date:

Thursday, January 11, 2007

  Actual Average Record
Temperature  
Mean Temperature 34 °F -  
Max Temperature 44 °F 28 °F 59 °F (2006)
Min Temperature 21 °F 9 °F -12 °F (1974)
Degree Days  
Heating Degree Days 32    
Moisture  
Dew Point 30 °F    
Average Humidity 77    
Maximum Humidity 93    
Minimum Humidity 68    
Precipitation  
Precipitation 0.01 in - - ()
Sea Level Pressure  
Sea Level Pressure 29.74 in    
Wind  
Wind Speed 11 mph (NNE)    
Max Wind Speed 25 mph    
Max Gust Speed 32 mph    
Visibility 10 miles    
Events      
Averages and records for this station are not official NWS values.
T = Trace of Precipitation, MM = Missing Value Source: NWS Daily Summary

Daily Weather History Graph

Daily Weather History Graph

Search for Another Location

Airport or City:

Trip Planner

Search our weather history database for the weather conditions in past years. The results will help you decide how hot, cold, wet, or windy it might be!

Date:

Astronomy

Jan. 11, 2007 Rise Set
Actual Time 7:49 AM CST 5:20 PM CST
Civil Twilight 7:19 AM CST 5:51 PM CST
Nautical Twilight 6:45 AM CST 6:24 PM CST
Astronomical Twilight 6:12 AM CST 6:57 PM CST
Moon 12:39 AM CST (1/11) 11:43 AM CST (1/11)
Length of Visible Light 10h 31m
Length of Day
9h 31m
Waning Gibbous, 48% of the Moon is Illuminated
Jan 11
Waning Gibbous
Jan 18
New
Jan 25
First Quarter
Feb 1
Full
Feb 10
Last Quarter

Hourly Weather History & Observations

Time (CST) Temp. Windchill Dew Point Humidity Pressure Visibility Wind Dir Wind Speed Gust Speed Precip Events Conditions
12:10 AM 41.0 °F 34.7 °F 32.0 °F 70% 29.72 in 10.0 mi South 10.4 mph - N/A   Clear
12:30 AM 41.0 °F 34.3 °F 32.0 °F 70% 29.71 in 10.0 mi South 11.5 mph - N/A   Clear
12:50 AM 41.0 °F 34.3 °F 32.0 °F 70% 29.71 in 10.0 mi South 11.5 mph - N/A   Clear
1:10 AM 41.0 °F 34.7 °F 32.0 °F 70% 29.70 in 10.0 mi South 10.4 mph - N/A   Clear
1:30 AM 41.0 °F 34.7 °F 32.0 °F 70% 29.69 in 10.0 mi South 10.4 mph - N/A   Clear
1:50 AM 41.0 °F 34.3 °F 32.0 °F 70% 29.69 in 10.0 mi South 11.5 mph - N/A   Clear
2:10 AM 41.0 °F 35.2 °F 32.0 °F 70% 29.69 in 10.0 mi South 9.2 mph - N/A   Clear
2:30 AM 41.0 °F 34.7 °F 32.0 °F 70% 29.69 in 10.0 mi South 10.4 mph - N/A   Clear
2:50 AM 41.0 °F 34.7 °F 33.8 °F 76% 29.69 in 10.0 mi South 10.4 mph 16.1 mph N/A   Clear
3:10 AM 41.0 °F 34.7 °F 33.8 °F 76% 29.68 in 10.0 mi South 10.4 mph - N/A   Clear
3:30 AM 41.0 °F 36.4 °F 33.8 °F 76% 29.67 in 10.0 mi South 6.9 mph - N/A   Clear
3:50 AM 41.0 °F 37.1 °F 33.8 °F 76% 29.67 in 10.0 mi SSE 5.8 mph - N/A   Clear
4:10 AM 41.0 °F 36.4 °F 33.8 °F 76% 29.66 in 10.0 mi SSE 6.9 mph - N/A   Clear
4:30 AM 41.0 °F 36.4 °F 33.8 °F 76% 29.66 in 10.0 mi SSE 6.9 mph - N/A   Clear
4:50 AM 41.0 °F 39.0 °F 33.8 °F 76% 29.66 in 10.0 mi SE 3.5 mph - N/A   Clear
6:10 AM 39.2 °F - 32.0 °F 75% 29.66 in 10.0 mi Calm Calm - N/A   Clear
6:30 AM 37.4 °F 34.9 °F 32.0 °F 81% 29.66 in 10.0 mi ESE 3.5 mph - N/A   Clear
6:50 AM 37.4 °F 34.9 °F 32.0 °F 81% 29.66 in 10.0 mi East 3.5 mph - N/A   Clear
7:10 AM 35.6 °F 32.8 °F 32.0 °F 87% 29.65 in 10.0 mi ENE 3.5 mph - N/A   Clear
7:30 AM 35.6 °F - 32.0 °F 87% 29.65 in 10.0 mi Calm Calm - N/A   Clear
7:50 AM 37.4 °F 33.8 °F 33.8 °F 87% 29.64 in 10.0 mi East 4.6 mph - N/A   Clear
8:10 AM 33.8 °F 30.8 °F 32.0 °F 93% 29.65 in 10.0 mi ENE 3.5 mph - N/A   Clear
8:30 AM 35.6 °F - 32.0 °F 87% 29.66 in 10.0 mi Calm Calm - N/A   Clear
8:50 AM 37.4 °F 34.9 °F 33.8 °F 87% 29.66 in 10.0 mi NE 3.5 mph - 0.01 in   Clear
9:10 AM 37.4 °F 32.8 °F 33.8 °F 87% 29.66 in 10.0 mi NE 5.8 mph - N/A   Clear
9:30 AM 37.4 °F 32.8 °F 33.8 °F 87% 29.66 in 10.0 mi NE 5.8 mph - N/A   Clear
9:50 AM 37.4 °F 33.8 °F 33.8 °F 87% 29.66 in 10.0 mi NE 4.6 mph - N/A   Clear
10:10 AM 39.2 °F 35.0 °F 35.6 °F 87% 29.67 in 10.0 mi NE 5.8 mph - N/A   Clear
10:30 AM 42.8 °F 39.3 °F 37.4 °F 81% 29.67 in 10.0 mi North 5.8 mph - N/A   Clear
10:50 AM 42.8 °F 39.3 °F 37.4 °F 81% 29.67 in 10.0 mi NE 5.8 mph - N/A   Clear
11:10 AM 44.6 °F 39.7 °F 37.4 °F 76% 29.67 in 10.0 mi North 9.2 mph - N/A   Clear
11:30 AM 44.6 °F 39.7 °F 35.6 °F 71% 29.68 in 10.0 mi North 9.2 mph - N/A   Clear
11:50 AM 44.6 °F 38.1 °F 35.6 °F 71% 29.68 in 10.0 mi North 13.8 mph - N/A   Scattered Clouds
12:10 PM 42.8 °F 35.8 °F 35.6 °F 76% 29.67 in 10.0 mi North 13.8 mph - N/A   Mostly Cloudy
12:30 PM 42.8 °F 34.8 °F 33.8 °F 70% 29.68 in 10.0 mi North 17.3 mph - N/A   Scattered Clouds
12:50 PM 41.0 °F 31.9 °F 32.0 °F 70% 29.69 in 10.0 mi North 19.6 mph - N/A   Mostly Cloudy
1:10 PM 37.4 °F 27.5 °F 32.0 °F 81% 29.68 in 10.0 mi North 18.4 mph 23.0 mph N/A   Overcast
1:30 PM 37.4 °F 26.4 °F 32.0 °F 81% 29.69 in 10.0 mi North 23.0 mph - N/A   Overcast
1:51 PM 35.6 °F 24.8 °F 30.2 °F 81% 29.71 in 10.0 mi North 19.6 mph 26.5 mph N/A   Overcast
2:10 PM 35.6 °F 24.5 °F 32.0 °F 87% 29.71 in 10.0 mi North 20.7 mph 26.5 mph N/A   Overcast
2:30 PM 35.6 °F 24.8 °F 30.2 °F 81% 29.71 in 10.0 mi North 19.6 mph 23.0 mph N/A   Overcast
2:50 PM 35.6 °F 24.0 °F 30.2 °F 81% 29.74 in 10.0 mi North 23.0 mph 26.5 mph N/A   Overcast
3:10 PM 33.8 °F 21.0 °F 30.2 °F 87% 29.77 in 10.0 mi North 25.3 mph 29.9 mph N/A   Overcast
3:30 PM 33.8 °F 21.9 °F 28.4 °F 81% 29.79 in 7.0 mi North 21.9 mph 28.8 mph N/A   Overcast
3:50 PM 33.8 °F 22.2 °F 28.4 °F 81% 29.81 in 10.0 mi North 20.7 mph 29.9 mph N/A   Overcast
4:10 PM 33.8 °F 21.9 °F 28.4 °F 81% 29.82 in 10.0 mi North 21.9 mph 26.5 mph N/A   Overcast
4:30 PM 32.0 °F 20.8 °F 28.4 °F 87% 29.84 in 10.0 mi North 17.3 mph - N/A   Overcast
4:50 PM 32.0 °F 19.8 °F 26.6 °F 80% 29.85 in 10.0 mi North 20.7 mph 27.6 mph N/A   Overcast
5:10 PM 32.0 °F 19.2 °F 24.8 °F 75% 29.87 in 10.0 mi North 23.0 mph 28.8 mph N/A   Overcast
5:30 PM 30.2 °F 17.4 °F 23.0 °F 75% 29.89 in 10.0 mi North 20.7 mph 26.5 mph N/A   Overcast
5:50 PM 30.2 °F 16.8 °F 21.2 °F 69% 29.90 in 10.0 mi North 23.0 mph 32.2 mph N/A   Overcast
6:10 PM 28.4 °F 13.8 °F 19.4 °F 69% 29.92 in 10.0 mi North 25.3 mph 28.8 mph N/A   Overcast
6:30 PM 28.4 °F 13.8 °F 19.4 °F 69% 29.93 in 10.0 mi North 25.3 mph 31.1 mph N/A   Overcast
6:50 PM 26.6 °F 12.4 °F 17.6 °F 69% 29.96 in 10.0 mi North 21.9 mph 29.9 mph N/A   Overcast
7:10 PM 24.8 °F 10.0 °F 15.8 °F 69% 29.99 in 10.0 mi North 21.9 mph - N/A   Overcast
7:30 PM 24.8 °F 9.6 °F 15.8 °F 69% 30.01 in 10.0 mi NNW 23.0 mph 28.8 mph N/A   Overcast
7:50 PM 23.0 °F 7.6 °F 14.0 °F 68% 30.02 in 10.0 mi North 21.9 mph 28.8 mph N/A   Overcast
8:10 PM 23.0 °F 6.9 °F 14.0 °F 68% 30.04 in 10.0 mi North 24.2 mph 31.1 mph N/A   Overcast
8:31 PM 21.2 °F 5.2 °F 12.2 °F 68% 30.05 in 10.0 mi NNW 21.9 mph - N/A   Overcast
8:50 PM 21.2 °F 5.6 °F 12.2 °F 68% 30.07 in 10.0 mi NNW 20.7 mph - N/A   Overcast
9:10 PM 19.4 °F 2.8 °F 14.0 °F 80% 30.08 in 10.0 mi North 21.9 mph 27.6 mph N/A   Overcast
9:30 PM 19.4 °F 3.6 °F 14.0 °F 80% 30.10 in 10.0 mi North 19.6 mph 26.5 mph N/A   Overcast
9:50 PM 19.4 °F 3.6 °F 14.0 °F 80% 30.10 in 10.0 mi North 19.6 mph 27.6 mph N/A   Overcast
10:10 PM 19.4 °F 2.5 °F 14.0 °F 80% 30.11 in 10.0 mi North 23.0 mph 27.6 mph N/A   Overcast
10:30 PM 17.6 °F 0.9 °F 12.2 °F 79% 30.11 in 10.0 mi North 20.7 mph - N/A   Overcast